sensor_id;sensor_type;location;lat;lon;timestamp;temperature;humidity
6738;DHT22;3406;49.902;8.596;2022-11-20T00:02:10;4.00;99.90
6738;DHT22;3406;49.902;8.596;2022-11-20T00:04:37;4.00;99.90
6738;DHT22;3406;49.902;8.596;2022-11-20T00:07:04;4.00;99.90
6738;DHT22;3406;49.902;8.596;2022-11-20T00:09:31;4.00;99.90
6738;DHT22;3406;49.902;8.596;2022-11-20T00:11:58;4.10;99.90
6738;DHT22;3406;49.902;8.596;2022-11-20T00:14:24;4.10;99.90
6738;DHT22;3406;49.902;8.596;2022-11-20T00:16:51;4.00;99.90
6738;DHT22;3406;49.902;8.596;2022-11-20T00:19:19;4.10;99.90
6738;DHT22;3406;49.902;8.596;2022-11-20T00:21:46;4.00;99.90
6738;DHT22;3406;49.902;8.596;2022-11-20T00:24:13;4.00;99.90
6738;DHT22;3406;49.902;8.596;2022-11-20T00:26:40;4.10;99.90
6738;DHT22;3406;49.902;8.596;2022-11-20T00:29:09;4.10;99.90
6738;DHT22;3406;49.902;8.596;2022-11-20T00:31:36;4.10;99.90
6738;DHT22;3406;49.902;8.596;2022-11-20T00:34:02;4.10;99.90
6738;DHT22;3406;49.902;8.596;2022-11-20T00:36:33;4.10;99.90
6738;DHT22;3406;49.902;8.596;2022-11-20T00:39:00;4.10;99.90
6738;DHT22;3406;49.902;8.596;2022-11-20T00:41:28;4.10;99.90
6738;DHT22;3406;49.902;8.596;2022-11-20T00:43:55;4.10;99.90
6738;DHT22;3406;49.902;8.596;2022-11-20T00:46:24;4.10;99.90
6738;DHT22;3406;49.902;8.596;2022-11-20T00:48:51;4.10;99.90
6738;DHT22;3406;49.902;8.596;2022-11-20T00:51:20;4.10;99.90
6738;DHT22;3406;49.902;8.596;2022-11-20T00:53:49;4.10;99.90
6738;DHT22;3406;49.902;8.596;2022-11-20T00:56:17;4.10;99.90
6738;DHT22;3406;49.902;8.596;2022-11-20T00:58:46;4.10;99.90
6738;DHT22;3406;49.902;8.596;2022-11-20T01:01:15;4.10;99.90
6738;DHT22;3406;49.902;8.596;2022-11-20T01:03:46;4.10;99.90
6738;DHT22;3406;49.902;8.596;2022-11-20T01:06:15;4.10;99.90
6738;DHT22;3406;49.902;8.596;2022-11-20T01:08:43;4.10;99.90
6738;DHT22;3406;49.902;8.596;2022-11-20T01:11:13;4.20;99.90
6738;DHT22;3406;49.902;8.596;2022-11-20T01:13:41;4.10;99.90
6738;DHT22;3406;49.902;8.596;2022-11-20T01:16:10;4.10;99.90
6738;DHT22;3406;49.902;8.596;2022-11-20T01:18:38;4.10;99.90
6738;DHT22;3406;49.902;8.596;2022-11-20T01:21:08;4.10;99.90
6738;DHT22;3406;49.902;8.596;2022-11-20T01:23:36;4.10;99.90
6738;DHT22;3406;49.902;8.596;2022-11-20T01:26:05;4.20;99.90
6738;DHT22;3406;49.902;8.596;2022-11-20T01:28:34;4.20;99.90
6738;DHT22;3406;49.902;8.596;2022-11-20T01:31:01;4.20;99.90
6738;DHT22;3406;49.902;8.596;2022-11-20T01:33:28;4.10;99.90
6738;DHT22;3406;49.902;8.596;2022-11-20T01:36:03;4.20;99.90
6738;DHT22;3406;49.902;8.596;2022-11-20T01:38:30;4.20;99.90
6738;DHT22;3406;49.902;8.596;2022-11-20T01:40:57;4.10;99.90
6738;DHT22;3406;49.902;8.596;2022-11-20T01:43:24;4.10;99.90
6738;DHT22;3406;49.902;8.596;2022-11-20T01:46:13;4.10;99.90
6738;DHT22;3406;49.902;8.596;2022-11-20T01:48:47;4.10;99.90
6738;DHT22;3406;49.902;8.596;2022-11-20T01:51:21;4.10;99.90
6738;DHT22;3406;49.902;8.596;2022-11-20T01:53:50;4.10;99.90
6738;DHT22;3406;49.902;8.596;2022-11-20T01:56:18;4.10;99.90
6738;DHT22;3406;49.902;8.596;2022-11-20T01:58:49;4.10;99.90
6738;DHT22;3406;49.902;8.596;2022-11-20T02:01:18;4.10;99.90
6738;DHT22;3406;49.902;8.596;2022-11-20T02:03:45;4.10;99.90
6738;DHT22;3406;49.902;8.596;2022-11-20T02:06:16;4.10;99.90
6738;DHT22;3406;49.902;8.596;2022-11-20T02:08:43;4.10;99.90
6738;DHT22;3406;49.902;8.596;2022-11-20T02:11:10;4.10;99.90
6738;DHT22;3406;49.902;8.596;2022-11-20T02:13:38;4.10;99.90
6738;DHT22;3406;49.902;8.596;2022-11-20T02:16:15;4.10;99.90
6738;DHT22;3406;49.902;8.596;2022-11-20T02:18:44;4.00;99.90
6738;DHT22;3406;49.902;8.596;2022-11-20T02:21:18;4.10;99.90
6738;DHT22;3406;49.902;8.596;2022-11-20T02:24:09;4.10;99.90
6738;DHT22;3406;49.902;8.596;2022-11-20T02:26:46;4.10;99.90
6738;DHT22;3406;49.902;8.596;2022-11-20T02:29:15;4.10;99.90
6738;DHT22;3406;49.902;8.596;2022-11-20T02:31:43;4.10;99.90
6738;DHT22;3406;49.902;8.596;2022-11-20T02:34:10;4.10;99.90
6738;DHT22;3406;49.902;8.596;2022-11-20T02:36:39;4.10;99.90
6738;DHT22;3406;49.902;8.596;2022-11-20T02:39:07;4.10;99.90
6738;DHT22;3406;49.902;8.596;2022-11-20T02:41:37;4.10;99.90
6738;DHT22;3406;49.902;8.596;2022-11-20T02:44:05;4.10;99.90
6738;DHT22;3406;49.902;8.596;2022-11-20T02:46:32;4.20;99.90
6738;DHT22;3406;49.902;8.596;2022-11-20T02:49:00;4.10;99.90
6738;DHT22;3406;49.902;8.596;2022-11-20T02:51:27;4.10;99.90
6738;DHT22;3406;49.902;8.596;2022-11-20T02:53:54;4.10;99.90
6738;DHT22;3406;49.902;8.596;2022-11-20T02:56:20;4.10;99.90
6738;DHT22;3406;49.902;8.596;2022-11-20T02:58:48;4.10;99.90
6738;DHT22;3406;49.902;8.596;2022-11-20T03:01:15;4.10;99.90
6738;DHT22;3406;49.902;8.596;2022-11-20T03:03:42;4.10;99.90
6738;DHT22;3406;49.902;8.596;2022-11-20T03:06:09;4.10;99.90
6738;DHT22;3406;49.902;8.596;2022-11-20T03:08:35;4.10;99.90
6738;DHT22;3406;49.902;8.596;2022-11-20T03:11:04;4.10;99.90
6738;DHT22;3406;49.902;8.596;2022-11-20T03:13:31;4.20;99.90
6738;DHT22;3406;49.902;8.596;2022-11-20T03:16:05;4.10;99.90
6738;DHT22;3406;49.902;8.596;2022-11-20T03:18:32;4.10;99.90
6738;DHT22;3406;49.902;8.596;2022-11-20T03:20:59;4.10;99.90
6738;DHT22;3406;49.902;8.596;2022-11-20T03:23:26;4.20;99.90
6738;DHT22;3406;49.902;8.596;2022-11-20T03:25:54;4.20;99.90
6738;DHT22;3406;49.902;8.596;2022-11-20T03:28:21;4.20;99.90
6738;DHT22;3406;49.902;8.596;2022-11-20T03:30:48;4.20;99.90
6738;DHT22;3406;49.902;8.596;2022-11-20T03:33:16;4.10;99.90
6738;DHT22;3406;49.902;8.596;2022-11-20T03:35:42;4.20;99.90
6738;DHT22;3406;49.902;8.596;2022-11-20T03:38:09;4.20;99.90
6738;DHT22;3406;49.902;8.596;2022-11-20T03:40:36;4.10;99.90
6738;DHT22;3406;49.902;8.596;2022-11-20T03:43:02;4.10;99.90
6738;DHT22;3406;49.902;8.596;2022-11-20T03:45:29;4.00;99.90
6738;DHT22;3406;49.902;8.596;2022-11-20T03:47:56;4.00;99.90
6738;DHT22;3406;49.902;8.596;2022-11-20T03:50:24;4.00;99.90
6738;DHT22;3406;49.902;8.596;2022-11-20T03:52:50;4.10;99.90
6738;DHT22;3406;49.902;8.596;2022-11-20T03:55:17;4.10;99.90
6738;DHT22;3406;49.902;8.596;2022-11-20T03:57:44;4.10;99.90
6738;DHT22;3406;49.902;8.596;2022-11-20T04:00:12;4.10;99.90
6738;DHT22;3406;49.902;8.596;2022-11-20T04:02:39;4.10;99.90
6738;DHT22;3406;49.902;8.596;2022-11-20T04:05:06;4.10;99.90
6738;DHT22;3406;49.902;8.596;2022-11-20T04:07:35;4.10;99.90
6738;DHT22;3406;49.902;8.596;2022-11-20T04:10:02;4.00;99.90
6738;DHT22;3406;49.902;8.596;2022-11-20T04:12:31;3.90;99.90
6738;DHT22;3406;49.902;8.596;2022-11-20T04:14:58;3.90;99.90
6738;DHT22;3406;49.902;8.596;2022-11-20T04:17:25;3.90;99.90
6738;DHT22;3406;49.902;8.596;2022-11-20T04:19:51;3.90;99.90
6738;DHT22;3406;49.902;8.596;2022-11-20T04:22:18;4.00;99.90
6738;DHT22;3406;49.902;8.596;2022-11-20T04:24:46;4.00;99.90
6738;DHT22;3406;49.902;8.596;2022-11-20T04:27:13;4.00;99.90
6738;DHT22;3406;49.902;8.596;2022-11-20T04:29:39;4.10;99.90
6738;DHT22;3406;49.902;8.596;2022-11-20T04:32:06;4.10;99.90
6738;DHT22;3406;49.902;8.596;2022-11-20T04:34:33;4.10;99.90
6738;DHT22;3406;49.902;8.596;2022-11-20T04:37:00;4.10;99.90
6738;DHT22;3406;49.902;8.596;2022-11-20T04:39:26;4.20;99.90
6738;DHT22;3406;49.902;8.596;2022-11-20T04:41:54;4.20;99.90
6738;DHT22;3406;49.902;8.596;2022-11-20T04:44:35;4.20;99.90
6738;DHT22;3406;49.902;8.596;2022-11-20T04:47:02;4.20;99.90
6738;DHT22;3406;49.902;8.596;2022-11-20T04:49:28;4.20;99.90
6738;DHT22;3406;49.902;8.596;2022-11-20T04:51:56;4.20;99.90
6738;DHT22;3406;49.902;8.596;2022-11-20T04:54:23;4.20;99.90
6738;DHT22;3406;49.902;8.596;2022-11-20T04:56:50;4.20;99.90
6738;DHT22;3406;49.902;8.596;2022-11-20T04:59:18;4.20;99.90
6738;DHT22;3406;49.902;8.596;2022-11-20T05:01:45;4.10;99.90
6738;DHT22;3406;49.902;8.596;2022-11-20T05:04:12;4.10;99.90
6738;DHT22;3406;49.902;8.596;2022-11-20T05:06:38;4.10;99.90
6738;DHT22;3406;49.902;8.596;2022-11-20T05:09:05;4.10;99.90
6738;DHT22;3406;49.902;8.596;2022-11-20T05:11:32;4.10;99.90
6738;DHT22;3406;49.902;8.596;2022-11-20T05:13:59;4.10;99.90
6738;DHT22;3406;49.902;8.596;2022-11-20T05:16:27;4.10;99.90
6738;DHT22;3406;49.902;8.596;2022-11-20T05:18:54;4.10;99.90
6738;DHT22;3406;49.902;8.596;2022-11-20T05:21:22;4.10;99.90
6738;DHT22;3406;49.902;8.596;2022-11-20T05:23:48;4.20;99.90
6738;DHT22;3406;49.902;8.596;2022-11-20T05:26:16;4.30;99.90
6738;DHT22;3406;49.902;8.596;2022-11-20T05:28:43;4.30;99.90
6738;DHT22;3406;49.902;8.596;2022-11-20T05:31:11;4.30;99.90
6738;DHT22;3406;49.902;8.596;2022-11-20T05:33:41;4.30;99.90
6738;DHT22;3406;49.902;8.596;2022-11-20T05:36:09;4.30;99.90
6738;DHT22;3406;49.902;8.596;2022-11-20T05:38:36;4.20;99.90
6738;DHT22;3406;49.902;8.596;2022-11-20T05:41:04;4.20;99.90
6738;DHT22;3406;49.902;8.596;2022-11-20T05:43:32;4.10;99.90
6738;DHT22;3406;49.902;8.596;2022-11-20T05:46:00;4.00;99.90
6738;DHT22;3406;49.902;8.596;2022-11-20T05:48:26;3.90;99.90
6738;DHT22;3406;49.902;8.596;2022-11-20T05:50:56;3.90;99.90
6738;DHT22;3406;49.902;8.596;2022-11-20T05:53:23;3.90;99.90
6738;DHT22;3406;49.902;8.596;2022-11-20T05:55:56;3.80;99.90
6738;DHT22;3406;49.902;8.596;2022-11-20T05:58:23;3.80;99.90
6738;DHT22;3406;49.902;8.596;2022-11-20T06:00:50;3.90;99.90
6738;DHT22;3406;49.902;8.596;2022-11-20T06:03:16;3.90;99.90
6738;DHT22;3406;49.902;8.596;2022-11-20T06:05:43;3.90;99.90
6738;DHT22;3406;49.902;8.596;2022-11-20T06:08:11;3.90;99.90
6738;DHT22;3406;49.902;8.596;2022-11-20T06:10:38;3.90;99.90
6738;DHT22;3406;49.902;8.596;2022-11-20T06:13:04;4.00;99.90
6738;DHT22;3406;49.902;8.596;2022-11-20T06:15:31;4.00;99.90
6738;DHT22;3406;49.902;8.596;2022-11-20T06:17:58;4.00;99.90
6738;DHT22;3406;49.902;8.596;2022-11-20T06:20:25;4.10;99.90
6738;DHT22;3406;49.902;8.596;2022-11-20T06:22:51;4.10;99.90
6738;DHT22;3406;49.902;8.596;2022-11-20T06:25:19;4.10;99.90
6738;DHT22;3406;49.902;8.596;2022-11-20T06:27:46;4.10;99.90
6738;DHT22;3406;49.902;8.596;2022-11-20T06:30:13;4.10;99.90
6738;DHT22;3406;49.902;8.596;2022-11-20T06:32:40;4.10;99.90
6738;DHT22;3406;49.902;8.596;2022-11-20T06:35:07;4.10;99.90
6738;DHT22;3406;49.902;8.596;2022-11-20T06:37:34;4.10;99.90
6738;DHT22;3406;49.902;8.596;2022-11-20T06:40:01;4.10;99.90
6738;DHT22;3406;49.902;8.596;2022-11-20T06:42:29;4.10;99.90
6738;DHT22;3406;49.902;8.596;2022-11-20T06:44:55;4.10;99.90
6738;DHT22;3406;49.902;8.596;2022-11-20T06:47:22;4.20;99.90
6738;DHT22;3406;49.902;8.596;2022-11-20T06:49:49;4.20;99.90
6738;DHT22;3406;49.902;8.596;2022-11-20T06:52:15;4.20;99.90
6738;DHT22;3406;49.902;8.596;2022-11-20T06:54:42;4.30;99.90
6738;DHT22;3406;49.902;8.596;2022-11-20T06:57:09;4.30;99.90
6738;DHT22;3406;49.902;8.596;2022-11-20T06:59:37;4.30;99.90
6738;DHT22;3406;49.902;8.596;2022-11-20T07:02:03;4.30;99.90
6738;DHT22;3406;49.902;8.596;2022-11-20T07:04:30;4.30;99.90
6738;DHT22;3406;49.902;8.596;2022-11-20T07:06:57;4.30;99.90
6738;DHT22;3406;49.902;8.596;2022-11-20T07:09:23;4.40;99.90
6738;DHT22;3406;49.902;8.596;2022-11-20T07:11:50;4.40;99.90
6738;DHT22;3406;49.902;8.596;2022-11-20T07:14:17;4.40;99.90
6738;DHT22;3406;49.902;8.596;2022-11-20T07:16:45;4.40;99.90
6738;DHT22;3406;49.902;8.596;2022-11-20T07:19:11;4.40;99.90
6738;DHT22;3406;49.902;8.596;2022-11-20T07:21:38;4.40;99.90
6738;DHT22;3406;49.902;8.596;2022-11-20T07:24:05;4.40;99.90
6738;DHT22;3406;49.902;8.596;2022-11-20T07:26:32;4.30;99.90
6738;DHT22;3406;49.902;8.596;2022-11-20T07:28:58;4.30;99.90
6738;DHT22;3406;49.902;8.596;2022-11-20T07:31:25;4.30;99.90
6738;DHT22;3406;49.902;8.596;2022-11-20T07:33:53;4.30;99.90
6738;DHT22;3406;49.902;8.596;2022-11-20T07:36:20;4.30;99.90
6738;DHT22;3406;49.902;8.596;2022-11-20T07:38:46;4.30;99.90
6738;DHT22;3406;49.902;8.596;2022-11-20T07:41:13;4.30;99.90
6738;DHT22;3406;49.902;8.596;2022-11-20T07:43:40;4.40;99.90
6738;DHT22;3406;49.902;8.596;2022-11-20T07:46:07;4.30;99.90
6738;DHT22;3406;49.902;8.596;2022-11-20T07:48:33;4.30;99.90
6738;DHT22;3406;49.902;8.596;2022-11-20T07:51:01;4.30;99.90
6738;DHT22;3406;49.902;8.596;2022-11-20T07:53:28;4.20;99.90
6738;DHT22;3406;49.902;8.596;2022-11-20T07:55:55;4.10;99.90
6738;DHT22;3406;49.902;8.596;2022-11-20T07:58:25;4.10;99.90
6738;DHT22;3406;49.902;8.596;2022-11-20T08:00:52;4.20;99.90
6738;DHT22;3406;49.902;8.596;2022-11-20T08:03:18;4.20;99.90
6738;DHT22;3406;49.902;8.596;2022-11-20T08:05:45;4.30;99.90
6738;DHT22;3406;49.902;8.596;2022-11-20T08:08:13;4.30;99.90
6738;DHT22;3406;49.902;8.596;2022-11-20T08:10:40;4.40;99.90
6738;DHT22;3406;49.902;8.596;2022-11-20T08:13:08;4.40;99.90
6738;DHT22;3406;49.902;8.596;2022-11-20T08:15:52;4.40;99.90
6738;DHT22;3406;49.902;8.596;2022-11-20T08:18:19;4.40;99.90
6738;DHT22;3406;49.902;8.596;2022-11-20T08:20:46;4.50;99.90
6738;DHT22;3406;49.902;8.596;2022-11-20T08:23:14;4.50;99.90
6738;DHT22;3406;49.902;8.596;2022-11-20T08:25:40;4.60;99.90
6738;DHT22;3406;49.902;8.596;2022-11-20T08:28:09;4.60;99.90
6738;DHT22;3406;49.902;8.596;2022-11-20T08:30:36;4.60;99.90
6738;DHT22;3406;49.902;8.596;2022-11-20T08:33:04;4.70;99.90
6738;DHT22;3406;49.902;8.596;2022-11-20T08:35:33;4.80;99.90
6738;DHT22;3406;49.902;8.596;2022-11-20T08:38:01;4.70;99.90
6738;DHT22;3406;49.902;8.596;2022-11-20T08:40:29;4.70;99.90
6738;DHT22;3406;49.902;8.596;2022-11-20T08:42:56;4.70;99.90
6738;DHT22;3406;49.902;8.596;2022-11-20T08:45:23;4.70;99.90
6738;DHT22;3406;49.902;8.596;2022-11-20T08:47:49;4.80;99.90
6738;DHT22;3406;49.902;8.596;2022-11-20T08:50:17;4.80;99.90
6738;DHT22;3406;49.902;8.596;2022-11-20T08:52:44;4.80;99.90
6738;DHT22;3406;49.902;8.596;2022-11-20T08:55:11;4.80;99.90
6738;DHT22;3406;49.902;8.596;2022-11-20T08:57:39;4.90;99.90
6738;DHT22;3406;49.902;8.596;2022-11-20T09:00:07;5.00;99.90
6738;DHT22;3406;49.902;8.596;2022-11-20T09:02:36;4.90;99.90
6738;DHT22;3406;49.902;8.596;2022-11-20T09:05:03;4.90;99.90
6738;DHT22;3406;49.902;8.596;2022-11-20T09:07:30;4.90;99.90
6738;DHT22;3406;49.902;8.596;2022-11-20T09:09:57;4.90;99.90
6738;DHT22;3406;49.902;8.596;2022-11-20T09:12:24;4.90;99.90
6738;DHT22;3406;49.902;8.596;2022-11-20T09:14:52;4.90;99.90
6738;DHT22;3406;49.902;8.596;2022-11-20T09:17:18;4.90;99.90
6738;DHT22;3406;49.902;8.596;2022-11-20T09:19:46;4.90;99.90
6738;DHT22;3406;49.902;8.596;2022-11-20T09:22:12;4.90;99.90
6738;DHT22;3406;49.902;8.596;2022-11-20T09:24:39;4.90;99.90
6738;DHT22;3406;49.902;8.596;2022-11-20T09:27:06;4.90;99.90
6738;DHT22;3406;49.902;8.596;2022-11-20T09:29:32;4.90;99.90
6738;DHT22;3406;49.902;8.596;2022-11-20T09:32:00;4.90;99.90
6738;DHT22;3406;49.902;8.596;2022-11-20T09:34:27;4.90;99.90
6738;DHT22;3406;49.902;8.596;2022-11-20T09:36:54;4.80;99.90
6738;DHT22;3406;49.902;8.596;2022-11-20T09:39:20;4.70;99.90
6738;DHT22;3406;49.902;8.596;2022-11-20T09:42:09;4.70;99.90
6738;DHT22;3406;49.902;8.596;2022-11-20T09:44:49;4.70;99.90
6738;DHT22;3406;49.902;8.596;2022-11-20T09:47:27;4.80;99.90
6738;DHT22;3406;49.902;8.596;2022-11-20T09:50:07;4.80;99.90
6738;DHT22;3406;49.902;8.596;2022-11-20T09:52:41;4.80;99.90
6738;DHT22;3406;49.902;8.596;2022-11-20T09:55:12;4.90;99.90
6738;DHT22;3406;49.902;8.596;2022-11-20T09:57:44;5.00;99.90
6738;DHT22;3406;49.902;8.596;2022-11-20T10:00:14;5.10;99.90
6738;DHT22;3406;49.902;8.596;2022-11-20T10:02:44;5.10;99.90
6738;DHT22;3406;49.902;8.596;2022-11-20T10:05:18;5.20;99.90
6738;DHT22;3406;49.902;8.596;2022-11-20T10:07:51;5.20;99.90
6738;DHT22;3406;49.902;8.596;2022-11-20T10:10:29;5.20;99.90
6738;DHT22;3406;49.902;8.596;2022-11-20T10:13:09;5.20;99.90
6738;DHT22;3406;49.902;8.596;2022-11-20T10:15:45;5.30;99.90
6738;DHT22;3406;49.902;8.596;2022-11-20T10:18:28;5.40;99.90
6738;DHT22;3406;49.902;8.596;2022-11-20T10:21:04;5.40;99.90
6738;DHT22;3406;49.902;8.596;2022-11-20T10:23:49;5.50;99.90
6738;DHT22;3406;49.902;8.596;2022-11-20T10:26:25;5.50;99.90
6738;DHT22;3406;49.902;8.596;2022-11-20T10:29:05;5.50;99.90
6738;DHT22;3406;49.902;8.596;2022-11-20T10:31:36;5.50;99.90
6738;DHT22;3406;49.902;8.596;2022-11-20T10:34:07;5.50;99.90
6738;DHT22;3406;49.902;8.596;2022-11-20T10:36:37;5.40;99.90
6738;DHT22;3406;49.902;8.596;2022-11-20T10:39:10;5.40;99.90
6738;DHT22;3406;49.902;8.596;2022-11-20T10:41:41;5.30;99.90
6738;DHT22;3406;49.902;8.596;2022-11-20T10:44:14;5.30;99.90
6738;DHT22;3406;49.902;8.596;2022-11-20T10:47:01;5.30;99.90
6738;DHT22;3406;49.902;8.596;2022-11-20T10:49:31;5.30;99.90
6738;DHT22;3406;49.902;8.596;2022-11-20T10:52:04;5.30;99.90
6738;DHT22;3406;49.902;8.596;2022-11-20T10:54:41;5.40;99.90
6738;DHT22;3406;49.902;8.596;2022-11-20T10:57:18;5.40;99.90
6738;DHT22;3406;49.902;8.596;2022-11-20T11:00:05;5.30;99.90
6738;DHT22;3406;49.902;8.596;2022-11-20T11:02:37;5.30;99.90
6738;DHT22;3406;49.902;8.596;2022-11-20T11:05:16;5.30;99.90
6738;DHT22;3406;49.902;8.596;2022-11-20T11:07:45;5.30;99.90
6738;DHT22;3406;49.902;8.596;2022-11-20T11:10:15;5.40;99.90
6738;DHT22;3406;49.902;8.596;2022-11-20T11:12:44;5.40;99.90
6738;DHT22;3406;49.902;8.596;2022-11-20T11:15:14;5.40;99.90
6738;DHT22;3406;49.902;8.596;2022-11-20T11:17:50;5.40;99.90
6738;DHT22;3406;49.902;8.596;2022-11-20T11:20:19;5.50;99.90
6738;DHT22;3406;49.902;8.596;2022-11-20T11:22:48;5.50;99.90
6738;DHT22;3406;49.902;8.596;2022-11-20T11:25:28;5.50;99.90
6738;DHT22;3406;49.902;8.596;2022-11-20T11:27:57;5.50;99.90
6738;DHT22;3406;49.902;8.596;2022-11-20T11:30:26;5.60;99.90
6738;DHT22;3406;49.902;8.596;2022-11-20T11:33:04;5.60;99.90
6738;DHT22;3406;49.902;8.596;2022-11-20T11:35:33;5.60;99.90
6738;DHT22;3406;49.902;8.596;2022-11-20T11:38:04;5.60;99.90
6738;DHT22;3406;49.902;8.596;2022-11-20T11:40:34;5.60;99.90
6738;DHT22;3406;49.902;8.596;2022-11-20T11:43:03;5.60;99.90
6738;DHT22;3406;49.902;8.596;2022-11-20T11:45:30;5.60;99.90
6738;DHT22;3406;49.902;8.596;2022-11-20T11:47:58;5.70;99.90
6738;DHT22;3406;49.902;8.596;2022-11-20T11:50:28;5.70;99.90
6738;DHT22;3406;49.902;8.596;2022-11-20T11:53:02;5.70;99.90
6738;DHT22;3406;49.902;8.596;2022-11-20T11:55:35;5.80;99.90
6738;DHT22;3406;49.902;8.596;2022-11-20T11:58:17;5.90;99.90
6738;DHT22;3406;49.902;8.596;2022-11-20T12:00:54;5.90;99.90
6738;DHT22;3406;49.902;8.596;2022-11-20T12:03:27;5.90;99.90
6738;DHT22;3406;49.902;8.596;2022-11-20T12:05:57;6.00;99.90
6738;DHT22;3406;49.902;8.596;2022-11-20T12:08:30;6.10;99.90
6738;DHT22;3406;49.902;8.596;2022-11-20T12:11:03;6.10;99.90
6738;DHT22;3406;49.902;8.596;2022-11-20T12:13:37;6.30;99.90
6738;DHT22;3406;49.902;8.596;2022-11-20T12:16:12;6.30;99.90
6738;DHT22;3406;49.902;8.596;2022-11-20T12:18:40;6.30;99.90
6738;DHT22;3406;49.902;8.596;2022-11-20T12:21:18;6.30;99.90
6738;DHT22;3406;49.902;8.596;2022-11-20T12:24:01;6.30;99.90
6738;DHT22;3406;49.902;8.596;2022-11-20T12:26:39;6.20;99.90
6738;DHT22;3406;49.902;8.596;2022-11-20T12:29:14;6.20;99.90
6738;DHT22;3406;49.902;8.596;2022-11-20T12:31:52;6.20;99.90
6738;DHT22;3406;49.902;8.596;2022-11-20T12:34:42;6.30;99.90
6738;DHT22;3406;49.902;8.596;2022-11-20T12:37:19;6.30;99.90
6738;DHT22;3406;49.902;8.596;2022-11-20T12:39:51;6.30;99.90
6738;DHT22;3406;49.902;8.596;2022-11-20T12:42:42;6.30;99.90
6738;DHT22;3406;49.902;8.596;2022-11-20T12:45:46;6.30;99.90
6738;DHT22;3406;49.902;8.596;2022-11-20T12:48:41;6.40;99.90
6738;DHT22;3406;49.902;8.596;2022-11-20T12:51:23;6.40;99.90
6738;DHT22;3406;49.902;8.596;2022-11-20T12:54:03;6.40;99.90
6738;DHT22;3406;49.902;8.596;2022-11-20T12:56:40;6.40;99.90
6738;DHT22;3406;49.902;8.596;2022-11-20T12:59:23;6.50;99.90
6738;DHT22;3406;49.902;8.596;2022-11-20T13:01:53;6.50;99.90
6738;DHT22;3406;49.902;8.596;2022-11-20T13:04:34;6.60;99.90
6738;DHT22;3406;49.902;8.596;2022-11-20T13:07:06;6.60;99.90
6738;DHT22;3406;49.902;8.596;2022-11-20T13:09:38;6.60;99.90
6738;DHT22;3406;49.902;8.596;2022-11-20T13:12:13;6.60;99.90
6738;DHT22;3406;49.902;8.596;2022-11-20T13:14:47;6.50;99.90
6738;DHT22;3406;49.902;8.596;2022-11-20T13:17:20;6.50;99.90
6738;DHT22;3406;49.902;8.596;2022-11-20T13:19:52;6.50;99.90
6738;DHT22;3406;49.902;8.596;2022-11-20T13:22:25;6.50;99.90
6738;DHT22;3406;49.902;8.596;2022-11-20T13:24:52;6.50;99.90
6738;DHT22;3406;49.902;8.596;2022-11-20T13:27:21;6.60;99.90
6738;DHT22;3406;49.902;8.596;2022-11-20T13:30:00;6.60;99.90
6738;DHT22;3406;49.902;8.596;2022-11-20T13:32:28;6.70;99.90
6738;DHT22;3406;49.902;8.596;2022-11-20T13:34:59;6.70;99.90
6738;DHT22;3406;49.902;8.596;2022-11-20T13:37:31;6.80;99.90
6738;DHT22;3406;49.902;8.596;2022-11-20T13:40:28;6.90;99.90
6738;DHT22;3406;49.902;8.596;2022-11-20T13:43:02;7.00;99.90
6738;DHT22;3406;49.902;8.596;2022-11-20T13:45:31;7.00;99.90
6738;DHT22;3406;49.902;8.596;2022-11-20T13:48:02;7.10;99.90
6738;DHT22;3406;49.902;8.596;2022-11-20T13:50:43;7.10;99.90
6738;DHT22;3406;49.902;8.596;2022-11-20T13:53:29;7.20;99.90
6738;DHT22;3406;49.902;8.596;2022-11-20T13:56:01;7.30;99.90
6738;DHT22;3406;49.902;8.596;2022-11-20T13:58:44;7.30;99.90
6738;DHT22;3406;49.902;8.596;2022-11-20T14:01:19;7.40;99.90
6738;DHT22;3406;49.902;8.596;2022-11-20T14:03:47;7.30;99.90
6738;DHT22;3406;49.902;8.596;2022-11-20T14:06:25;7.30;99.90
6738;DHT22;3406;49.902;8.596;2022-11-20T14:12:17;7.30;99.90
6738;DHT22;3406;49.902;8.596;2022-11-20T14:14:49;7.30;99.90
6738;DHT22;3406;49.902;8.596;2022-11-20T14:17:18;7.20;99.90
6738;DHT22;3406;49.902;8.596;2022-11-20T14:19:46;7.30;99.90
6738;DHT22;3406;49.902;8.596;2022-11-20T14:22:19;7.30;99.90
6738;DHT22;3406;49.902;8.596;2022-11-20T14:24:47;7.40;99.90
6738;DHT22;3406;49.902;8.596;2022-11-20T14:27:16;7.40;99.90
6738;DHT22;3406;49.902;8.596;2022-11-20T14:29:45;7.50;99.90
6738;DHT22;3406;49.902;8.596;2022-11-20T14:32:16;7.50;99.90
6738;DHT22;3406;49.902;8.596;2022-11-20T14:34:45;7.50;99.90
6738;DHT22;3406;49.902;8.596;2022-11-20T14:37:16;7.50;99.90
6738;DHT22;3406;49.902;8.596;2022-11-20T14:39:49;7.50;99.90
6738;DHT22;3406;49.902;8.596;2022-11-20T14:42:19;7.50;99.90
6738;DHT22;3406;49.902;8.596;2022-11-20T14:44:47;7.50;99.90
6738;DHT22;3406;49.902;8.596;2022-11-20T14:47:19;7.50;99.90
6738;DHT22;3406;49.902;8.596;2022-11-20T14:49:47;7.50;99.90
6738;DHT22;3406;49.902;8.596;2022-11-20T14:52:16;7.50;99.90
6738;DHT22;3406;49.902;8.596;2022-11-20T14:54:44;7.50;99.90
6738;DHT22;3406;49.902;8.596;2022-11-20T14:57:21;7.50;99.90
6738;DHT22;3406;49.902;8.596;2022-11-20T14:59:48;7.50;99.90
6738;DHT22;3406;49.902;8.596;2022-11-20T15:02:16;7.50;99.90
6738;DHT22;3406;49.902;8.596;2022-11-20T15:04:47;7.50;99.90
6738;DHT22;3406;49.902;8.596;2022-11-20T15:07:24;7.50;99.90
6738;DHT22;3406;49.902;8.596;2022-11-20T15:10:02;7.50;99.90
6738;DHT22;3406;49.902;8.596;2022-11-20T15:12:30;7.50;99.90
6738;DHT22;3406;49.902;8.596;2022-11-20T15:14:58;7.50;99.90
6738;DHT22;3406;49.902;8.596;2022-11-20T15:17:26;7.50;99.90
6738;DHT22;3406;49.902;8.596;2022-11-20T15:19:53;7.50;99.90
6738;DHT22;3406;49.902;8.596;2022-11-20T15:22:20;7.50;99.90
6738;DHT22;3406;49.902;8.596;2022-11-20T15:24:47;7.50;99.90
6738;DHT22;3406;49.902;8.596;2022-11-20T15:27:13;7.50;99.90
6738;DHT22;3406;49.902;8.596;2022-11-20T15:29:41;7.50;99.90
6738;DHT22;3406;49.902;8.596;2022-11-20T15:32:08;7.50;99.90
6738;DHT22;3406;49.902;8.596;2022-11-20T15:34:36;7.50;99.90
6738;DHT22;3406;49.902;8.596;2022-11-20T15:37:03;7.50;99.90
6738;DHT22;3406;49.902;8.596;2022-11-20T15:39:30;7.50;99.90
6738;DHT22;3406;49.902;8.596;2022-11-20T15:41:56;7.50;99.90
6738;DHT22;3406;49.902;8.596;2022-11-20T15:44:23;7.50;99.90
6738;DHT22;3406;49.902;8.596;2022-11-20T15:46:49;7.50;99.90
6738;DHT22;3406;49.902;8.596;2022-11-20T15:49:17;7.50;99.90
6738;DHT22;3406;49.902;8.596;2022-11-20T15:51:49;7.50;99.90
6738;DHT22;3406;49.902;8.596;2022-11-20T15:54:19;7.50;99.90
6738;DHT22;3406;49.902;8.596;2022-11-20T15:56:46;7.50;99.90
6738;DHT22;3406;49.902;8.596;2022-11-20T15:59:13;7.50;99.90
6738;DHT22;3406;49.902;8.596;2022-11-20T16:01:41;7.50;99.90
6738;DHT22;3406;49.902;8.596;2022-11-20T16:04:10;7.50;99.90
6738;DHT22;3406;49.902;8.596;2022-11-20T16:06:37;7.50;99.90
6738;DHT22;3406;49.902;8.596;2022-11-20T16:09:05;7.40;99.90
6738;DHT22;3406;49.902;8.596;2022-11-20T16:11:32;7.40;99.90
6738;DHT22;3406;49.902;8.596;2022-11-20T16:13:59;7.40;99.90
6738;DHT22;3406;49.902;8.596;2022-11-20T16:16:43;7.40;99.90
6738;DHT22;3406;49.902;8.596;2022-11-20T16:19:10;7.40;99.90
6738;DHT22;3406;49.902;8.596;2022-11-20T16:21:37;7.40;99.90
6738;DHT22;3406;49.902;8.596;2022-11-20T16:24:10;7.40;99.90
6738;DHT22;3406;49.902;8.596;2022-11-20T16:26:38;7.40;99.90
6738;DHT22;3406;49.902;8.596;2022-11-20T16:29:06;7.30;99.90
6738;DHT22;3406;49.902;8.596;2022-11-20T16:31:33;7.30;99.90
6738;DHT22;3406;49.902;8.596;2022-11-20T16:34:02;7.30;99.90
6738;DHT22;3406;49.902;8.596;2022-11-20T16:36:29;7.30;99.90
6738;DHT22;3406;49.902;8.596;2022-11-20T16:38:58;7.30;99.90